Weather at La Florida Airport

Public forecast

Using degrees Celsius for public forecast. Weather courtesy of forecast.io.

Current aviation weather report (METAR) for La Florida Airport

Report is more than 6 hours old.

Retrieved 2020/08/14 14:00 UTC (4 months ago):

SKCO 141400Z /////KT 7000 BKN025 XX/XX A2986 RMK HZ

Closest aviation forecast (TAF) to La Florida Airport

Forecast is more than 12 hours old.

Closest forecast is Teniente Coronel Luis a Mantilla Airport, 86.9 nm (160.9 km) SE. Retrieved 2018/04/06 18:33 UTC (3 years ago):

TAF SPJC 061700Z 0618/0718 25008KT CAVOK TX26/0618Z TN18/0711ZLVA0883 061730 GG KWBCYMYX 061730 SEQUYZYX SPEQ SEQU 061728 SPECI SETU 061728Z 07006KT 9999 -TSRA FEW020CB BKN023 CB OVER STN